createdAt,value
2019-04-22T00:01:30.789Z,23.61
2019-04-22T00:04:03.849Z,23.59
2019-04-22T00:06:49.952Z,23.57
2019-04-22T00:09:24.084Z,23.57
2019-04-22T00:12:00.412Z,23.55
2019-04-22T00:14:24.246Z,23.59
2019-04-22T00:17:01.851Z,23.59
2019-04-22T00:19:36.021Z,23.59
2019-04-22T00:22:08.028Z,23.64
2019-04-22T00:24:31.369Z,23.64
2019-04-22T00:27:03.873Z,23.62
2019-04-22T00:29:50.235Z,23.60
2019-04-22T00:32:19.495Z,23.61
2019-04-22T00:34:48.787Z,23.59
2019-04-22T00:37:23.274Z,23.58
2019-04-22T00:39:51.830Z,23.61
2019-04-22T00:42:32.936Z,23.60
2019-04-22T00:45:00.479Z,23.61
2019-04-22T00:55:10.125Z,23.59
2019-04-22T00:57:35.739Z,23.61
2019-04-22T01:00:05.383Z,23.57
2019-04-22T01:02:42.942Z,23.59
2019-04-22T01:05:12.978Z,23.55
2019-04-22T01:07:40.581Z,23.57
2019-04-22T01:10:12.948Z,23.56
2019-04-22T01:12:42.688Z,23.55
2019-04-22T01:15:21.485Z,23.57
2019-04-22T01:17:46.455Z,23.62
2019-04-22T01:20:37.042Z,23.73
2019-04-22T01:22:46.171Z,23.84
2019-04-22T01:25:17.655Z,24.05
2019-04-22T01:27:39.251Z,24.23
2019-04-22T01:30:09.659Z,24.33
2019-04-22T01:32:36.139Z,24.33
2019-04-22T01:35:18.039Z,24.31
2019-04-22T01:37:48.438Z,24.31
2019-04-22T01:40:35.119Z,24.32
2019-04-22T01:43:08.679Z,24.29
2019-04-22T01:45:39.223Z,24.26
2019-04-22T01:48:05.267Z,24.23
2019-04-22T01:50:37.329Z,24.24
2019-04-22T01:58:05.655Z,24.15
2019-04-22T02:00:51.082Z,24.14
2019-04-22T02:03:17.791Z,24.12
2019-04-22T02:05:46.887Z,24.14
2019-04-22T02:08:25.517Z,24.16
2019-04-22T02:10:54.628Z,24.18
2019-04-22T02:13:22.036Z,24.22
2019-04-22T02:15:57.102Z,24.27
2019-04-22T02:18:23.147Z,24.26
2019-04-22T02:20:48.508Z,24.26
2019-04-22T02:23:47.273Z,24.26
2019-04-22T02:26:22.813Z,24.24
2019-04-22T02:46:41.310Z,24.32
2019-04-22T02:51:21.891Z,24.32
2019-04-22T02:54:27.074Z,24.34
2019-04-22T02:59:08.534Z,24.38
2019-04-22T03:01:30.076Z,24.36
2019-04-22T03:06:36.673Z,24.37
2019-04-22T03:09:03.476Z,24.39
2019-04-22T03:11:34.223Z,24.41
2019-04-22T03:19:22.852Z,24.41
2019-04-22T03:26:39.063Z,24.39
2019-04-22T03:29:11.306Z,24.41
2019-04-22T03:42:07.627Z,24.39
2019-04-22T03:44:38.855Z,24.37
2019-04-22T03:49:59.003Z,24.35
2019-04-22T03:57:30.280Z,24.32
2019-04-22T03:59:55.007Z,24.32
2019-04-22T04:02:21.320Z,24.30
2019-04-22T04:04:47.425Z,24.28
2019-04-22T04:07:40.495Z,24.27
2019-04-22T04:09:49.293Z,24.25
2019-04-22T04:14:58.170Z,24.21
2019-04-22T04:17:26.602Z,24.17
2019-04-22T04:20:10.622Z,24.13
2019-04-22T04:22:46.673Z,24.12
2019-04-22T04:25:08.365Z,24.11
2019-04-22T04:30:06.295Z,24.10
2019-04-22T04:35:18.942Z,24.10
2019-04-22T04:45:32.040Z,24.34
2019-04-22T04:50:09.782Z,24.45
2019-04-22T04:52:39.267Z,24.40
2019-04-22T04:58:09.586Z,24.30
2019-04-22T05:10:27.135Z,24.09
2019-04-22T05:17:54.991Z,24.04
2019-04-22T05:20:32.075Z,24.02
2019-04-22T05:22:44.743Z,24.02
2019-04-22T05:25:22.196Z,23.98
2019-04-22T05:35:26.218Z,23.94
2019-04-22T05:37:56.546Z,23.97
2019-04-22T05:42:56.088Z,23.94
2019-04-22T05:45:25.404Z,23.92
2019-04-22T05:47:56.271Z,23.92
2019-04-22T05:50:26.908Z,23.88
2019-04-22T05:53:00.476Z,23.87
2019-04-22T05:55:41.575Z,23.85
2019-04-22T05:58:08.655Z,23.83
2019-04-22T06:01:12.820Z,23.87
2019-04-22T06:03:08.530Z,23.85
2019-04-22T06:06:00.911Z,23.86
2019-04-22T06:08:19.896Z,23.94
2019-04-22T06:10:53.622Z,23.98
2019-04-22T06:13:18.137Z,24.05
2019-04-22T06:15:55.742Z,24.05
2019-04-22T06:18:31.475Z,24.07
2019-04-22T06:21:06.514Z,24.08
2019-04-22T06:23:34.539Z,24.08
2019-04-22T06:26:14.692Z,24.07
2019-04-22T06:28:48.458Z,24.07
2019-04-22T06:31:12.524Z,24.06
2019-04-22T06:33:34.143Z,24.03
2019-04-22T06:36:08.196Z,24.00
2019-04-22T06:41:18.906Z,23.91
2019-04-22T06:43:50.120Z,23.90
2019-04-22T06:46:17.299Z,23.92
2019-04-22T06:48:46.010Z,23.88
2019-04-22T06:51:24.533Z,23.87
2019-04-22T06:53:47.744Z,23.83
2019-04-22T06:56:35.592Z,23.78
2019-04-22T06:58:52.334Z,23.75
2019-04-22T07:06:35.475Z,23.60
2019-04-22T07:09:20.632Z,23.58
2019-04-22T07:11:23.754Z,23.58
2019-04-22T07:14:01.333Z,23.60
2019-04-22T07:19:09.206Z,23.55
2019-04-22T07:21:36.771Z,23.52
2019-04-22T07:24:20.042Z,23.50
2019-04-22T07:26:36.217Z,23.46
2019-04-22T07:29:07.464Z,23.43
2019-04-22T07:31:43.141Z,23.39
2019-04-22T07:34:19.637Z,23.35
2019-04-22T07:39:19.872Z,23.30
2019-04-22T07:41:44.581Z,23.27
2019-04-22T07:44:21.852Z,23.24
2019-04-22T07:49:18.264Z,23.22
2019-04-22T07:51:49.483Z,23.19
2019-04-22T07:54:20.761Z,23.13
2019-04-22T07:57:07.333Z,23.15
2019-04-22T07:59:26.389Z,23.10
2019-04-22T08:01:56.290Z,23.11
2019-04-22T08:04:35.909Z,23.10
2019-04-22T08:07:11.400Z,23.10
2019-04-22T08:09:41.786Z,23.11
2019-04-22T08:11:56.323Z,23.11
2019-04-22T08:14:35.193Z,23.29
2019-04-22T08:17:33.080Z,23.41
2019-04-22T08:19:43.208Z,23.76
2019-04-22T08:22:11.657Z,23.94
2019-04-22T08:24:41.816Z,24.12
2019-04-22T08:27:11.410Z,24.38
2019-04-22T08:29:52.204Z,24.43
2019-04-22T08:32:15.543Z,24.50
2019-04-22T08:34:42.710Z,24.59
2019-04-22T08:37:41.511Z,24.75
2019-04-22T08:39:55.131Z,24.92
2019-04-22T08:42:29.419Z,24.98
2019-04-22T08:45:07.777Z,25.15
2019-04-22T08:47:26.445Z,25.03
2019-04-22T08:52:30.362Z,25.05
2019-04-22T08:54:57.437Z,24.98
2019-04-22T08:57:40.978Z,24.96
2019-04-22T09:00:03.982Z,24.94
2019-04-22T09:02:32.452Z,24.90
2019-04-22T09:05:10.570Z,24.88
2019-04-22T09:07:31.534Z,24.86
2019-04-22T09:10:02.025Z,24.90
2019-04-22T09:15:02.446Z,24.89
2019-04-22T09:17:41.328Z,24.90
2019-04-22T09:20:13.216Z,24.92
2019-04-22T09:22:41.004Z,25.04
2019-04-22T09:25:11.732Z,25.06
2019-04-22T09:27:44.537Z,24.99
2019-04-22T09:30:22.786Z,25.04
2019-04-22T09:32:54.477Z,25.11
2019-04-22T09:35:21.373Z,25.32
2019-04-22T09:42:51.806Z,26.12
2019-04-22T09:45:21.614Z,26.31
2019-04-22T09:48:16.705Z,26.41
2019-04-22T09:50:33.263Z,26.31
2019-04-22T09:53:02.006Z,26.37
2019-04-22T09:55:41.643Z,26.37
2019-04-22T09:57:55.819Z,26.29
2019-04-22T10:00:38.761Z,26.29
2019-04-22T10:03:07.185Z,26.27
2019-04-22T10:05:41.193Z,26.23
2019-04-22T10:08:18.644Z,26.25
2019-04-22T10:10:41.789Z,26.23
2019-04-22T10:13:13.595Z,26.21
2019-04-22T10:15:39.730Z,26.24
2019-04-22T10:18:20.231Z,26.18
2019-04-22T10:20:45.921Z,26.10
2019-04-22T10:23:19.018Z,26.03
2019-04-22T10:25:45.274Z,25.95
2019-04-22T10:28:27.266Z,25.88
2019-04-22T10:31:00.389Z,25.85
2019-04-22T10:33:14.933Z,25.90
2019-04-22T10:35:28.790Z,25.89
2019-04-22T10:37:58.487Z,25.87
2019-04-22T10:40:40.771Z,25.76
2019-04-22T10:43:11.527Z,25.83
2019-04-22T10:45:41.996Z,25.82
2019-04-22T10:48:12.368Z,25.84
2019-04-22T10:50:48.547Z,25.94
2019-04-22T10:53:19.874Z,26.24
2019-04-22T10:55:51.621Z,26.61
2019-04-22T10:58:22.798Z,26.72
2019-04-22T11:00:54.108Z,26.82
2019-04-22T11:03:24.568Z,26.89
2019-04-22T11:05:54.381Z,26.93
2019-04-22T11:08:32.630Z,26.87
2019-04-22T11:11:11.941Z,26.89
2019-04-22T11:13:26.345Z,26.81
2019-04-22T11:15:56.232Z,26.79
2019-04-22T11:18:25.752Z,26.79
2019-04-22T11:20:55.737Z,26.73
2019-04-22T11:23:26.887Z,26.67
2019-04-22T11:25:57.604Z,26.63
2019-04-22T11:28:27.711Z,26.69
2019-04-22T11:30:58.714Z,26.62
2019-04-22T11:33:28.495Z,26.61
2019-04-22T11:35:58.077Z,26.53
2019-04-22T11:38:28.856Z,26.46
2019-04-22T11:41:01.114Z,26.42
2019-04-22T11:43:30.456Z,26.37
2019-04-22T11:46:00.078Z,26.45
2019-04-22T11:48:31.056Z,26.48
2019-04-22T11:51:01.947Z,26.50
2019-04-22T11:53:31.569Z,26.43
2019-04-22T11:56:02.703Z,26.35
2019-04-22T11:58:33.165Z,26.28
2019-04-22T12:01:03.159Z,26.22
2019-04-22T12:03:33.810Z,26.20
2019-04-22T12:06:03.940Z,26.17
2019-04-22T12:08:34.065Z,26.13
2019-04-22T12:11:05.972Z,26.09
2019-04-22T12:13:35.791Z,26.08
2019-04-22T12:16:07.352Z,26.04
2019-04-22T12:18:37.397Z,26.03
2019-04-22T12:21:07.101Z,26.00
2019-04-22T12:23:37.068Z,25.98
2019-04-22T12:26:12.718Z,26.10
2019-04-22T12:28:39.234Z,26.13
2019-04-22T12:31:09.494Z,26.07
2019-04-22T12:33:39.340Z,26.04
2019-04-22T12:36:11.046Z,26.01
2019-04-22T12:38:41.826Z,25.98
2019-04-22T12:41:14.044Z,26.01
2019-04-22T12:43:45.068Z,26.03
2019-04-22T12:46:18.336Z,26.01
2019-04-22T12:48:48.174Z,25.99
2019-04-22T12:51:18.876Z,25.98
2019-04-22T12:53:48.843Z,25.96
2019-04-22T12:56:19.660Z,25.94
2019-04-22T12:58:49.875Z,25.93
2019-04-22T13:01:21.129Z,25.92
2019-04-22T13:03:52.083Z,25.88
2019-04-22T13:06:21.827Z,25.88
2019-04-22T13:08:52.449Z,25.89
2019-04-22T13:11:28.409Z,25.90
2019-04-22T13:13:54.652Z,26.03
2019-04-22T13:16:25.003Z,26.20
2019-04-22T13:19:00.202Z,26.34
2019-04-22T13:21:26.918Z,26.40
2019-04-22T13:23:57.096Z,26.43
2019-04-22T13:26:27.164Z,26.52
2019-04-22T13:28:57.056Z,26.63
2019-04-22T13:31:26.897Z,26.73
2019-04-22T13:33:59.672Z,26.90
2019-04-22T13:36:29.663Z,26.91
2019-04-22T13:38:59.104Z,26.93
2019-04-22T13:41:33.912Z,27.15
2019-04-22T13:44:00.079Z,27.53
2019-04-22T13:46:31.726Z,27.73
2019-04-22T13:49:37.777Z,27.82
2019-04-22T13:52:02.361Z,27.93
2019-04-22T13:54:49.690Z,28.48
2019-04-22T13:56:55.132Z,28.65
2019-04-22T13:59:15.115Z,28.71
2019-04-22T14:01:46.227Z,28.79
2019-04-22T14:04:22.635Z,28.88
2019-04-22T14:06:52.532Z,28.95
2019-04-22T14:09:22.458Z,29.04
2019-04-22T14:11:58.295Z,29.04
2019-04-22T14:14:25.910Z,29.13
2019-04-22T14:16:55.575Z,29.20
2019-04-22T14:19:26.023Z,29.26
2019-04-22T14:21:55.727Z,29.31
2019-04-22T14:24:26.015Z,29.36
2019-04-22T14:27:13.205Z,29.37
2019-04-22T14:29:26.878Z,29.45
2019-04-22T14:32:06.932Z,29.48
2019-04-22T14:34:28.482Z,29.54
2019-04-22T14:36:59.432Z,29.55
2019-04-22T14:39:30.310Z,29.54
2019-04-22T14:42:19.572Z,29.55
2019-04-22T14:45:44.542Z,29.57
2019-04-22T14:47:26.028Z,29.56
2019-04-22T14:49:53.884Z,29.57
2019-04-22T14:52:27.674Z,29.60
2019-04-22T14:54:49.647Z,29.61
2019-04-22T14:57:07.729Z,29.57
2019-04-22T14:59:37.727Z,29.54
2019-04-22T15:02:09.764Z,29.49
2019-04-22T15:04:42.872Z,29.48
2019-04-22T15:07:12.734Z,29.40
2019-04-22T15:09:43.873Z,29.35
2019-04-22T15:12:20.691Z,29.33
2019-04-22T15:14:45.794Z,29.33
2019-04-22T15:17:38.752Z,29.32
2019-04-22T15:20:43.770Z,29.31
2019-04-22T15:23:14.727Z,29.25
2019-04-22T15:25:44.344Z,29.22
2019-04-22T15:28:15.250Z,29.18
2019-04-22T15:30:45.726Z,29.17
2019-04-22T15:33:15.415Z,29.16
2019-04-22T15:35:45.221Z,29.12
2019-04-22T15:38:15.555Z,29.05
2019-04-22T15:40:46.853Z,29.01
2019-04-22T15:43:17.070Z,28.96
2019-04-22T15:45:46.759Z,28.92
2019-04-22T15:48:16.878Z,28.87
2019-04-22T15:50:46.750Z,28.87
2019-04-22T15:53:17.901Z,28.82
2019-04-22T15:55:47.665Z,28.79
2019-04-22T15:58:17.511Z,28.76
2019-04-22T16:00:58.097Z,28.75
2019-04-22T16:03:18.737Z,28.71
2019-04-22T16:05:48.328Z,28.71
2019-04-22T16:08:19.142Z,28.65
2019-04-22T16:10:48.762Z,28.60
2019-04-22T16:13:24.385Z,28.55
2019-04-22T16:15:52.199Z,28.47
2019-04-22T16:18:22.494Z,28.43
2019-04-22T16:20:52.425Z,28.38
2019-04-22T16:23:36.596Z,28.32
2019-04-22T16:26:38.072Z,28.30
2019-04-22T16:29:09.494Z,28.24
2019-04-22T16:31:39.708Z,28.18
2019-04-22T16:34:11.275Z,28.16
2019-04-22T16:36:40.994Z,28.15
2019-04-22T16:39:13.103Z,28.11
2019-04-22T16:41:42.896Z,28.09
2019-04-22T16:44:14.232Z,28.09
2019-04-22T16:46:43.955Z,28.08
2019-04-22T16:49:13.958Z,28.08
2019-04-22T16:51:43.546Z,28.06
2019-04-22T16:54:13.838Z,28.04
2019-04-22T16:56:43.946Z,28.01
2019-04-22T16:59:14.893Z,27.98
2019-04-22T17:02:04.258Z,27.94
2019-04-22T17:05:11.486Z,27.92
2019-04-22T17:07:42.334Z,27.90
2019-04-22T17:10:13.529Z,27.87
2019-04-22T17:12:53.223Z,27.87
2019-04-22T17:15:16.824Z,27.87
2019-04-22T17:17:47.389Z,27.84
2019-04-22T17:20:17.421Z,27.82
2019-04-22T17:22:47.367Z,27.78
2019-04-22T17:25:18.267Z,27.71
2019-04-22T17:27:48.065Z,27.70
2019-04-22T17:30:18.368Z,27.74
2019-04-22T17:32:48.377Z,27.75
2019-04-22T17:35:20.000Z,27.74
2019-04-22T17:38:00.287Z,27.73
2019-04-22T17:40:38.829Z,27.70
2019-04-22T17:43:26.326Z,27.68
2019-04-22T17:46:01.635Z,27.67
2019-04-22T17:48:50.661Z,27.64
2019-04-22T17:51:29.948Z,27.61
2019-04-22T17:53:55.002Z,27.61
2019-04-22T17:56:28.243Z,27.55
2019-04-22T17:58:56.812Z,27.76
2019-04-22T18:01:25.254Z,27.99
2019-04-22T18:03:42.333Z,27.94
2019-04-22T18:06:18.815Z,27.85
2019-04-22T18:08:56.379Z,27.80
2019-04-22T18:11:33.604Z,27.76
2019-04-22T18:14:13.794Z,27.72
2019-04-22T18:16:33.695Z,27.69
2019-04-22T18:19:04.486Z,27.63
2019-04-22T18:21:30.320Z,27.61
2019-04-22T18:23:56.456Z,27.59
2019-04-22T18:26:30.682Z,27.54
2019-04-22T18:29:07.413Z,27.53
2019-04-22T18:31:31.571Z,27.46
2019-04-22T18:34:06.896Z,27.40
2019-04-22T18:36:37.241Z,27.37
2019-04-22T18:39:20.934Z,27.36
2019-04-22T18:41:44.007Z,27.31
2019-04-22T18:44:16.932Z,27.31
2019-04-22T18:46:50.392Z,27.28
2019-04-22T18:49:15.297Z,27.27
2019-04-22T18:52:01.120Z,27.21
2019-04-22T18:54:42.367Z,27.17
2019-04-22T18:57:12.302Z,27.16
2019-04-22T18:59:32.686Z,27.14
2019-04-22T19:02:01.461Z,27.13
2019-04-22T19:04:40.857Z,27.09
2019-04-22T19:07:28.652Z,27.06
2019-04-22T19:15:00.967Z,27.00
2019-04-22T19:20:13.028Z,26.97
2019-04-22T19:22:37.889Z,26.96
2019-04-22T19:24:57.954Z,26.96
2019-04-22T19:27:31.255Z,26.96
2019-04-22T19:30:04.227Z,27.00
2019-04-22T19:32:40.111Z,27.09
2019-04-22T19:35:03.772Z,27.51
2019-04-22T19:37:39.977Z,28.20
2019-04-22T19:40:34.146Z,28.96
2019-04-22T19:45:10.763Z,30.39
2019-04-22T19:47:53.219Z,30.64
2019-04-22T19:50:16.460Z,31.15
2019-04-22T19:52:43.374Z,31.45
2019-04-22T19:55:19.542Z,31.50
2019-04-22T19:57:52.582Z,31.54
2019-04-22T20:00:35.081Z,31.50
2019-04-22T20:03:49.817Z,31.65
2019-04-22T20:06:34.981Z,31.81
2019-04-22T20:09:05.731Z,32.13
2019-04-22T20:11:41.284Z,32.42
2019-04-22T20:14:12.830Z,32.91
2019-04-22T20:16:37.438Z,33.50
2019-04-22T20:19:19.168Z,34.05
2019-04-22T20:21:50.090Z,34.70
2019-04-22T20:24:04.430Z,35.58
2019-04-22T20:26:49.926Z,36.27
2019-04-22T20:29:21.037Z,37.84
2019-04-22T20:31:49.577Z,38.58
2019-04-22T20:34:38.030Z,38.80
2019-04-22T20:37:08.645Z,39.17
2019-04-22T20:39:28.846Z,39.47
2019-04-22T20:41:49.119Z,39.69
2019-04-22T20:44:32.385Z,39.77
2019-04-22T20:46:57.360Z,39.69
2019-04-22T20:49:31.016Z,39.65
2019-04-22T20:52:24.033Z,39.48
2019-04-22T20:54:28.576Z,39.21
2019-04-22T20:56:55.333Z,39.10
2019-04-22T20:59:33.253Z,39.00
2019-04-22T21:02:02.104Z,38.91
2019-04-22T21:04:26.085Z,38.83
2019-04-22T21:07:02.270Z,38.78
2019-04-22T21:09:38.282Z,38.65
2019-04-22T21:12:04.817Z,38.49
2019-04-22T21:14:41.341Z,38.31
2019-04-22T21:17:25.048Z,38.17
2019-04-22T21:20:00.824Z,38.16
2019-04-22T21:22:26.102Z,38.06
2019-04-22T21:24:53.567Z,38.01
2019-04-22T21:27:28.373Z,37.95
2019-04-22T21:29:52.135Z,37.99
2019-04-22T21:32:29.751Z,37.72
2019-04-22T21:35:07.690Z,37.49
2019-04-22T21:37:37.749Z,37.34
2019-04-22T21:40:00.428Z,37.24
2019-04-22T21:42:38.788Z,37.11
2019-04-22T21:45:05.064Z,36.95
2019-04-22T21:47:48.784Z,36.80
2019-04-22T21:50:31.130Z,36.65
2019-04-22T21:52:40.711Z,36.51
2019-04-22T21:55:16.393Z,36.40
2019-04-22T21:58:19.206Z,36.23
2019-04-22T22:01:14.084Z,36.09
2019-04-22T22:03:40.126Z,36.02
2019-04-22T22:06:02.960Z,36.00
2019-04-22T22:08:49.882Z,35.94
2019-04-22T22:11:13.362Z,35.84
2019-04-22T22:13:48.789Z,35.66
2019-04-22T22:16:13.090Z,35.49
2019-04-22T22:18:50.707Z,35.40
2019-04-22T22:21:33.640Z,35.23
2019-04-22T22:23:56.029Z,35.13
2019-04-22T22:26:15.556Z,34.97
2019-04-22T22:29:01.995Z,34.87
2019-04-22T22:31:31.617Z,34.76
2019-04-22T22:33:54.186Z,34.62
2019-04-22T22:36:23.726Z,34.54
2019-04-22T22:38:55.128Z,34.43
2019-04-22T22:41:07.959Z,34.31
2019-04-22T22:43:42.038Z,34.19
2019-04-22T22:46:18.897Z,34.08
2019-04-22T22:49:05.156Z,34.01
2019-04-22T22:51:39.991Z,33.85
2019-04-22T22:54:07.615Z,33.79
2019-04-22T22:56:42.225Z,33.71
2019-04-22T22:59:02.817Z,33.60
2019-04-22T23:01:39.715Z,33.53
2019-04-22T23:04:15.050Z,33.46
2019-04-22T23:06:45.510Z,33.39
2019-04-22T23:09:10.205Z,33.27
2019-04-22T23:12:02.182Z,33.18
2019-04-22T23:14:14.494Z,33.09
2019-04-22T23:16:33.637Z,33.00
2019-04-22T23:19:06.382Z,32.95
2019-04-22T23:21:43.307Z,32.86
2019-04-22T23:24:43.965Z,32.77
2019-04-22T23:27:19.344Z,32.72
2019-04-22T23:30:04.195Z,32.64
2019-04-22T23:32:35.484Z,32.56
2019-04-22T23:35:19.973Z,32.48
2019-04-22T23:37:50.017Z,32.43
2019-04-22T23:40:39.024Z,32.34
2019-04-22T23:43:00.204Z,32.30
2019-04-22T23:45:34.895Z,32.21
2019-04-22T23:47:49.944Z,32.16
2019-04-22T23:50:31.141Z,32.11
2019-04-22T23:53:04.837Z,32.07
2019-04-22T23:55:39.808Z,32.01
2019-04-22T23:58:07.967Z,31.91
